Time;durP1;ratioP1;P1;durP2;ratioP2;P2;SDS_P1;SDS_P2;PMS_P1;PMS_P2;Temp;Humidity;BMP_temperature;BMP_pressure;BME280_temperature;BME280_humidity;BME280_pressure;Samples;Min_cycle;Max_cycle;Signal;HPM_P1;HPM_P2
2021/10/12 00:01:10;;;;;;;0.05;0.00;;;;;;;23.48;100.00;100574.25;5046873;28;20068;-72
2021/10/12 00:03:54;;;;;;;0.00;0.00;;;;;;;23.44;100.00;100577.22;5045006;28;20047;-72
2021/10/12 00:06:38;;;;;;;0.00;0.00;;;;;;;23.43;100.00;100579.06;5044877;28;20056;-72
2021/10/12 00:09:25;;;;;;;0.00;0.00;;;;;;;23.43;100.00;100573.66;5059277;28;20520;-68
2021/10/12 00:12:10;;;;;;;0.00;0.00;;;;;;;23.40;100.00;100576.53;5044816;28;20055;-64
2021/10/12 00:14:54;;;;;;;0.00;0.00;;;;;;;23.38;100.00;100567.63;5054190;28;20059;-70
2021/10/12 00:17:39;;;;;;;0.00;0.00;;;;;;;23.42;100.00;100565.63;5059092;28;20068;-69
2021/10/12 00:20:24;;;;;;;0.00;0.00;;;;;;;23.39;100.00;100561.25;5064455;28;20055;-70
2021/10/12 00:23:08;;;;;;;0.00;0.00;;;;;;;23.40;100.00;100564.81;5064529;28;20048;-69
2021/10/12 00:25:53;;;;;;;0.00;0.00;;;;;;;23.39;100.00;100563.97;5060846;28;20047;-63
2021/10/12 00:28:37;;;;;;;0.00;0.00;;;;;;;23.41;100.00;100561.19;5068169;28;20535;-65
2021/10/12 00:31:22;;;;;;;0.00;0.00;;;;;;;23.41;100.00;100562.03;5058026;28;20043;-66
2021/10/12 00:34:07;;;;;;;0.00;0.00;;;;;;;23.38;100.00;100556.78;5048031;28;20075;-66
2021/10/12 00:36:51;;;;;;;0.00;0.00;;;;;;;23.36;100.00;100560.56;5061897;28;20056;-65
2021/10/12 00:39:35;;;;;;;0.00;0.00;;;;;;;23.37;100.00;100560.47;5057557;28;20063;-65
2021/10/12 00:42:20;;;;;;;0.00;0.00;;;;;;;23.35;100.00;100554.28;5039753;28;20083;-65
2021/10/12 00:45:11;;;;;;;0.00;0.00;;;;;;;23.34;100.00;100552.53;5056863;28;20147;-64
2021/10/12 00:47:58;;;;;;;0.00;0.00;;;;;;;23.35;100.00;100559.69;5046874;28;20059;-66
2021/10/12 00:50:43;;;;;;;0.00;0.00;;;;;;;23.30;100.00;100539.28;5049388;28;20055;-65
2021/10/12 00:53:27;;;;;;;0.00;0.00;;;;;;;23.33;100.00;100553.50;5062218;28;20083;-66
2021/10/12 00:56:11;;;;;;;0.00;0.00;;;;;;;23.30;100.00;100547.41;5067867;28;20144;-65
2021/10/12 00:58:55;;;;;;;0.00;0.00;;;;;;;23.27;100.00;100539.44;5055469;28;20071;-65
2021/10/12 01:01:41;;;;;;;0.00;0.00;;;;;;;23.25;100.00;100549.50;5052200;28;20527;-65
2021/10/12 01:04:26;;;;;;;0.00;0.00;;;;;;;23.26;100.00;100552.09;5064086;28;20052;-65
2021/10/12 01:07:10;;;;;;;0.00;0.00;;;;;;;23.30;100.00;100533.88;5063913;28;20089;-64
2021/10/12 01:09:55;;;;;;;0.00;0.00;;;;;;;23.33;100.00;100545.38;5059304;28;20052;-67
2021/10/12 01:12:40;;;;;;;0.20;0.00;;;;;;;23.35;100.00;100539.88;5062596;28;20054;-65
2021/10/12 01:15:24;;;;;;;0.00;0.00;;;;;;;23.37;100.00;100537.97;5069136;28;20074;-66
2021/10/12 01:18:13;;;;;;;0.00;0.00;;;;;;;23.37;100.00;100538.81;5051686;28;20091;-66
2021/10/12 01:20:57;;;;;;;0.00;0.00;;;;;;;23.41;100.00;100547.63;5033091;28;20086;-63
2021/10/12 01:23:42;;;;;;;0.00;0.00;;;;;;;23.40;100.00;100543.16;5051144;28;20052;-66
2021/10/12 01:26:26;;;;;;;0.00;0.00;;;;;;;23.40;100.00;100540.44;5056127;28;20063;-67
2021/10/12 01:29:14;;;;;;;0.00;0.00;;;;;;;23.41;100.00;100534.09;5053363;28;20135;-66
2021/10/12 01:31:59;;;;;;;0.00;0.00;;;;;;;23.39;100.00;100534.19;5048047;28;20056;-66
2021/10/12 01:34:43;;;;;;;0.00;0.00;;;;;;;23.36;100.00;100533.47;5049665;28;20090;-67
2021/10/12 01:37:29;;;;;;;0.00;0.00;;;;;;;23.38;100.00;100529.72;5032924;28;20067;-66
2021/10/12 01:40:15;;;;;;;0.00;0.00;;;;;;;23.40;100.00;100526.91;5053234;28;20059;-63
2021/10/12 01:43:00;;;;;;;0.00;0.00;;;;;;;23.40;100.00;100535.03;5047802;28;20109;-67
2021/10/12 01:45:45;;;;;;;0.00;0.00;;;;;;;23.39;100.00;100534.19;5061650;28;20059;-67
2021/10/12 01:48:29;;;;;;;0.00;0.00;;;;;;;23.31;100.00;100522.06;5054986;28;20140;-65
2021/10/12 01:51:13;;;;;;;0.00;0.00;;;;;;;23.28;100.00;100527.66;5057239;28;20102;-64
2021/10/12 01:54:00;;;;;;;0.00;0.00;;;;;;;23.29;100.00;100524.00;5050304;28;20137;-68
2021/10/12 01:56:46;;;;;;;0.00;0.00;;;;;;;23.28;100.00;100524.94;5063969;28;20139;-64
2021/10/12 01:59:30;;;;;;;0.00;0.00;;;;;;;23.24;100.00;100518.84;5046320;28;20055;-64
2021/10/12 02:02:15;;;;;;;0.00;0.00;;;;;;;23.18;100.00;100499.38;5052608;28;20086;-65
2021/10/12 02:04:59;;;;;;;0.00;0.00;;;;;;;23.24;100.00;100516.16;5052151;28;20052;-64
2021/10/12 02:07:44;;;;;;;0.00;0.00;;;;;;;23.28;100.00;100514.13;5067003;28;20102;-65
2021/10/12 02:10:28;;;;;;;0.00;0.00;;;;;;;23.27;100.00;100515.09;5047740;28;20051;-65
2021/10/12 02:13:13;;;;;;;0.00;0.00;;;;;;;23.24;100.00;100507.16;5052067;28;20574;-65
2021/10/12 02:15:57;;;;;;;0.00;0.00;;;;;;;23.23;100.00;100508.13;5058278;28;20408;-62
2021/10/12 02:18:42;;;;;;;0.00;0.00;;;;;;;23.23;100.00;100503.59;5064863;28;20051;-64
2021/10/12 02:21:26;;;;;;;0.00;0.00;;;;;;;23.23;100.00;100505.41;5058222;28;20121;-63
2021/10/12 02:24:10;;;;;;;0.00;0.00;;;;;;;23.22;100.00;100499.13;5057424;28;20156;-63
2021/10/12 02:26:55;;;;;;;0.00;0.00;;;;;;;23.25;100.00;100500.81;5062073;28;20054;-63
2021/10/12 02:29:40;;;;;;;0.00;0.00;;;;;;;23.19;100.00;100507.41;5055195;28;20452;-64
2021/10/12 02:32:24;;;;;;;0.00;0.00;;;;;;;23.17;100.00;100506.63;5052195;28;20519;-64
2021/10/12 02:35:09;;;;;;;0.00;0.00;;;;;;;23.16;100.00;100504.88;5048999;28;20154;-65
2021/10/12 02:37:53;;;;;;;0.00;0.00;;;;;;;23.19;100.00;100503.81;5067776;28;20437;-64
2021/10/12 02:40:38;;;;;;;0.00;0.00;;;;;;;23.17;100.00;100505.75;5063626;28;20105;-62
2021/10/12 02:43:22;;;;;;;0.00;0.00;;;;;;;23.19;100.00;100504.72;5050503;28;20409;-67
2021/10/12 02:46:07;;;;;;;0.00;0.00;;;;;;;23.24;100.00;100510.75;5066286;28;20590;-70
2021/10/12 02:48:51;;;;;;;0.00;0.00;;;;;;;23.24;100.00;100501.72;5050642;28;20095;-70
2021/10/12 02:51:36;;;;;;;0.00;0.00;;;;;;;23.23;100.00;100503.59;5031841;28;20052;-67
2021/10/12 02:54:20;;;;;;;0.28;0.00;;;;;;;23.22;100.00;100509.09;5047008;28;20452;-66
2021/10/12 02:57:05;;;;;;;0.00;0.00;;;;;;;23.23;100.00;100500.88;5058809;28;20094;-65
2021/10/12 02:59:49;;;;;;;0.00;0.00;;;;;;;23.23;100.00;100502.72;5061641;28;20105;-66
2021/10/12 03:02:34;;;;;;;0.00;0.00;;;;;;;23.24;100.00;100494.50;5054965;28;20079;-64
2021/10/12 03:05:18;;;;;;;0.00;0.00;;;;;;;23.22;100.00;100495.56;5036173;28;20846;-64
2021/10/12 03:08:03;;;;;;;0.00;0.00;;;;;;;23.21;100.00;100494.69;5051089;28;20051;-64
2021/10/12 03:10:47;;;;;;;0.00;0.00;;;;;;;23.15;100.00;100488.72;5061817;28;20055;-65
2021/10/12 03:13:32;;;;;;;0.00;0.00;;;;;;;23.12;100.00;100487.09;5041526;28;20108;-66
2021/10/12 03:16:17;;;;;;;0.00;0.00;;;;;;;23.17;100.00;100489.53;5065090;28;20059;-63
2021/10/12 03:19:01;;;;;;;0.00;0.00;;;;;;;23.14;100.00;100487.00;5064989;28;20075;-64
2021/10/12 03:21:52;;;;;;;0.00;0.00;;;;;;;23.14;100.00;100477.03;5047385;28;20048;-62
2021/10/12 03:24:38;;;;;;;0.00;0.00;;;;;;;23.15;100.00;100486.91;5050731;28;20135;-65
2021/10/12 03:27:23;;;;;;;0.03;0.00;;;;;;;23.16;100.00;100485.94;5061111;28;20059;-65
2021/10/12 03:30:08;;;;;;;0.00;0.00;;;;;;;23.10;100.00;100480.88;5061954;28;20085;-65
2021/10/12 03:32:53;;;;;;;0.00;0.00;;;;;;;23.09;100.00;100481.00;5054525;28;20091;-65
2021/10/12 03:35:45;;;;;;;0.00;0.00;;;;;;;23.06;100.00;100476.59;5058184;28;20187;-68
2021/10/12 03:38:29;;;;;;;0.00;0.00;;;;;;;23.12;100.00;100468.13;5038887;28;20190;-65
2021/10/12 03:41:14;;;;;;;0.00;0.00;;;;;;;23.14;100.00;100468.06;5058783;28;20055;-66
2021/10/12 03:43:58;;;;;;;0.00;0.00;;;;;;;23.12;100.00;100468.13;5057273;28;20479;-63
2021/10/12 03:46:43;;;;;;;0.00;0.00;;;;;;;23.22;100.00;100472.06;5059892;28;20780;-66
2021/10/12 03:49:28;;;;;;;0.00;0.00;;;;;;;23.11;100.00;100466.41;5059483;28;20051;-67
2021/10/12 03:52:12;;;;;;;0.00;0.00;;;;;;;23.08;100.00;100461.16;5068464;28;20444;-64
2021/10/12 03:54:57;;;;;;;0.00;0.00;;;;;;;23.16;100.00;100464.28;5066830;28;20064;-67
2021/10/12 03:57:41;;;;;;;0.00;0.00;;;;;;;23.09;100.00;100468.31;5068297;28;20529;-63
2021/10/12 04:00:26;;;;;;;0.22;0.00;;;;;;;23.10;100.00;100467.34;5065811;28;20121;-66
2021/10/12 04:03:10;;;;;;;0.00;0.00;;;;;;;23.10;100.00;100469.19;5049091;28;20483;-67
2021/10/12 04:05:54;;;;;;;0.00;0.00;;;;;;;23.10;100.00;100464.63;5054415;28;20047;-66
2021/10/12 04:08:39;;;;;;;0.00;0.00;;;;;;;23.16;100.00;100458.88;5064570;28;20099;-62
2021/10/12 04:11:24;;;;;;;0.00;0.00;;;;;;;23.15;100.00;100462.56;5054435;28;21069;-62
2021/10/12 04:14:08;;;;;;;0.00;0.00;;;;;;;23.11;100.00;100454.69;5055078;28;20071;-62
2021/10/12 04:16:52;;;;;;;0.00;0.00;;;;;;;23.11;100.00;100457.41;5050629;28;20044;-64
2021/10/12 04:19:37;;;;;;;0.00;0.00;;;;;;;23.12;100.00;100456.44;5052046;28;20140;-62
2021/10/12 04:22:21;;;;;;;0.00;0.00;;;;;;;23.05;100.00;100449.63;5066099;28;20130;-63
2021/10/12 04:25:06;;;;;;;0.00;0.00;;;;;;;23.08;100.00;100461.16;5062331;28;20078;-65
2021/10/12 04:27:52;;;;;;;0.00;0.00;;;;;;;23.02;100.00;100453.41;5068366;28;20602;-64
2021/10/12 04:30:36;;;;;;;0.00;0.00;;;;;;;23.10;100.00;100452.97;5062583;28;20151;-66
2021/10/12 04:33:20;;;;;;;0.00;0.00;;;;;;;23.11;100.00;100462.81;5065787;28;20090;-62
2021/10/12 04:36:05;;;;;;;0.00;0.00;;;;;;;23.09;100.00;100459.34;5060105;28;20052;-64
2021/10/12 04:38:50;;;;;;;0.00;0.00;;;;;;;23.11;100.00;100460.13;5052284;28;20055;-67
2021/10/12 04:41:37;;;;;;;0.00;0.00;;;;;;;23.04;100.00;100448.78;5061553;28;20120;-64
2021/10/12 04:44:22;;;;;;;0.00;0.00;;;;;;;23.13;100.00;100459.06;5048138;28;20133;-66
2021/10/12 04:47:06;;;;;;;0.00;0.00;;;;;;;23.11;100.00;100466.41;5065288;28;20512;-65
2021/10/12 04:49:50;;;;;;;0.00;0.00;;;;;;;23.05;100.00;100455.94;5055984;28;20488;-62
2021/10/12 04:52:35;;;;;;;0.00;0.00;;;;;;;23.08;100.00;100460.28;5051237;28;20048;-63
2021/10/12 04:55:20;;;;;;;0.00;0.00;;;;;;;23.10;100.00;100463.78;5060907;28;20052;-63
2021/10/12 04:58:07;;;;;;;0.00;0.00;;;;;;;23.12;100.00;100459.13;5052875;28;20067;-63
2021/10/12 05:00:51;;;;;;;0.00;0.00;;;;;;;23.09;100.00;100454.78;5037218;28;20122;-64
2021/10/12 05:03:36;;;;;;;0.00;0.00;;;;;;;23.09;100.00;100456.66;5055143;28;20047;-64
2021/10/12 05:06:20;;;;;;;0.00;0.00;;;;;;;23.09;100.00;100456.66;5051599;28;20125;-63
2021/10/12 05:09:05;;;;;;;0.00;0.00;;;;;;;23.20;100.00;100462.25;5067065;28;20570;-64
2021/10/12 05:11:49;;;;;;;0.00;0.00;;;;;;;23.19;100.00;100452.41;5067712;28;20422;-63
2021/10/12 05:14:34;;;;;;;0.00;0.00;;;;;;;23.22;100.00;100453.09;5066219;28;20110;-66
2021/10/12 05:17:26;;;;;;;0.00;0.00;;;;;;;23.17;100.00;100447.06;5046636;28;20067;-64
2021/10/12 05:20:11;;;;;;;0.00;0.00;;;;;;;23.18;100.00;100453.38;5061950;28;20059;-61
2021/10/12 05:22:56;;;;;;;0.00;0.00;;;;;;;23.16;100.00;100444.47;5052089;28;20063;-61
2021/10/12 05:25:45;;;;;;;0.00;0.00;;;;;;;23.18;100.00;100445.25;5042742;28;20463;-61
2021/10/12 05:28:30;;;;;;;0.00;0.00;;;;;;;23.17;100.00;100448.94;5056409;28;20101;-62
2021/10/12 05:31:15;;;;;;;0.10;0.00;;;;;;;23.18;100.00;100448.81;5063572;28;20138;-62
2021/10/12 05:33:59;;;;;;;0.00;0.00;;;;;;;23.17;100.00;100446.22;5060322;28;20102;-66
2021/10/12 05:36:44;;;;;;;0.00;0.00;;;;;;;23.18;100.00;100456.94;5065500;28;20104;-65
2021/10/12 05:39:28;;;;;;;0.00;0.00;;;;;;;23.23;100.00;100456.69;5059049;28;20056;-66
2021/10/12 05:42:13;;;;;;;0.03;0.00;;;;;;;23.19;100.00;100449.69;5050181;28;20191;-65
2021/10/12 05:44:57;;;;;;;0.00;0.00;;;;;;;23.25;100.00;100463.75;5066223;28;20413;-65
2021/10/12 05:47:42;;;;;;;0.00;0.00;;;;;;;23.21;100.00;100445.97;5070071;28;20052;-65
2021/10/12 05:50:26;;;;;;;0.00;0.00;;;;;;;23.26;100.00;100451.97;5053776;28;20051;-66
2021/10/12 05:58:49;;;;;;;0.00;0.00;;;;;;;23.19;100.00;100439.75;5055364;28;20044;-66
2021/10/12 06:01:36;;;;;;;0.00;0.00;;;;;;;23.24;100.00;100451.19;5055393;28;20059;-70
2021/10/12 06:04:21;;;;;;;0.00;0.00;;;;;;;23.25;100.00;100443.97;5057397;28;20064;-66
2021/10/12 06:07:06;;;;;;;0.00;0.00;;;;;;;23.24;100.00;100445.78;5050567;28;20744;-68
2021/10/12 06:09:50;;;;;;;0.00;0.00;;;;;;;23.24;100.00;100447.59;5052287;28;20090;-68
2021/10/12 06:12:35;;;;;;;0.00;0.00;;;;;;;23.26;100.00;100445.69;5057157;28;20170;-66
2021/10/12 06:15:19;;;;;;;0.00;0.00;;;;;;;23.24;100.00;100447.59;5052356;28;20067;-66
2021/10/12 06:18:04;;;;;;;0.00;0.00;;;;;;;23.27;100.00;100445.59;5047654;28;20086;-65
2021/10/12 06:20:49;;;;;;;0.00;0.00;;;;;;;23.26;100.00;100448.41;5035938;28;20059;-65
2021/10/12 06:23:34;;;;;;;0.00;0.00;;;;;;;23.25;100.00;100441.25;5065134;28;20486;-65
2021/10/12 06:26:18;;;;;;;0.00;0.00;;;;;;;23.23;100.00;100441.34;5064545;28;20178;-65
2021/10/12 06:29:03;;;;;;;0.00;0.00;;;;;;;23.25;100.00;100446.66;5050348;28;20284;-64
2021/10/12 06:31:48;;;;;;;0.00;0.00;;;;;;;23.27;100.00;100453.72;5061439;28;20075;-65
2021/10/12 06:34:32;;;;;;;0.00;0.00;;;;;;;23.26;100.00;100449.25;5058857;28;20087;-64
2021/10/12 06:37:17;;;;;;;0.00;0.00;;;;;;;23.23;100.00;100444.06;5049142;28;20140;-67
2021/10/12 06:40:01;;;;;;;0.00;0.00;;;;;;;23.22;100.00;100441.44;5045553;28;20719;-65
2021/10/12 06:42:47;;;;;;;0.00;0.00;;;;;;;23.30;100.00;100449.97;5016625;28;20060;-65
2021/10/12 06:45:31;;;;;;;0.00;0.00;;;;;;;23.31;100.00;100448.97;5045381;28;20063;-67
2021/10/12 06:48:16;;;;;;;0.00;0.00;;;;;;;23.27;100.00;100445.59;5054433;28;20047;-69
2021/10/12 06:51:00;;;;;;;0.00;0.00;;;;;;;23.33;100.00;100453.34;5065698;28;20102;-65
2021/10/12 06:53:46;;;;;;;0.00;0.00;;;;;;;23.31;100.00;100443.56;5054696;28;20044;-64
2021/10/12 06:56:32;;;;;;;0.00;0.00;;;;;;;23.36;100.00;100446.84;5033029;28;20052;-67
2021/10/12 06:59:17;;;;;;;0.00;0.00;;;;;;;23.32;100.00;100446.19;5062292;28;20059;-66
2021/10/12 07:02:01;;;;;;;0.00;0.00;;;;;;;23.25;100.00;100425.88;5059886;28;20043;-67
2021/10/12 07:04:46;;;;;;;0.00;0.00;;;;;;;23.31;100.00;100435.44;5062498;28;20070;-66
2021/10/12 07:07:31;;;;;;;0.00;0.00;;;;;;;23.34;100.00;100437.97;5053428;28;20055;-65
2021/10/12 07:10:16;;;;;;;0.00;0.00;;;;;;;23.30;100.00;100441.84;5052360;28;20527;-64
2021/10/12 07:13:00;;;;;;;0.00;0.00;;;;;;;23.30;100.00;100421.03;5043617;28;20217;-66
2021/10/12 07:15:45;;;;;;;0.00;0.00;;;;;;;23.32;100.00;100438.06;5057101;28;20048;-65
2021/10/12 07:18:29;;;;;;;0.00;0.00;;;;;;;23.33;100.00;100434.38;5052459;28;20110;-64
2021/10/12 07:21:14;;;;;;;0.00;0.00;;;;;;;23.30;100.00;100421.03;5056207;28;20055;-69
2021/10/12 07:23:58;;;;;;;0.00;0.00;;;;;;;23.35;100.00;100423.47;5061621;28;20051;-64
2021/10/12 07:26:42;;;;;;;0.00;0.00;;;;;;;23.33;100.00;100428.97;5051391;28;20134;-63
2021/10/12 07:29:27;;;;;;;0.00;0.00;;;;;;;23.35;100.00;100421.63;5052373;28;20527;-64
2021/10/12 07:32:13;;;;;;;0.00;0.00;;;;;;;23.31;100.00;100411.09;5059566;28;20095;-65
2021/10/12 07:35:00;;;;;;;0.00;0.00;;;;;;;23.41;100.00;100425.81;5055358;28;20488;-63
2021/10/12 07:37:45;;;;;;;0.00;0.00;;;;;;;23.43;100.00;100427.44;5055722;28;20146;-66
2021/10/12 07:40:29;;;;;;;0.00;0.00;;;;;;;23.42;100.00;100425.69;5046594;28;20068;-62
2021/10/12 07:43:14;;;;;;;0.00;0.00;;;;;;;23.46;100.00;100421.81;5060610;28;20098;-63
2021/10/12 07:45:58;;;;;;;0.00;0.00;;;;;;;23.53;100.00;100425.06;5062918;28;20052;-65
2021/10/12 07:48:42;;;;;;;0.00;0.00;;;;;;;23.48;100.00;100422.63;5053193;28;20054;-73
2021/10/12 07:51:30;;;;;;;0.00;0.00;;;;;;;23.55;100.00;100418.56;5047424;28;20491;-62
2021/10/12 07:54:19;;;;;;;0.00;0.00;;;;;;;23.78;100.00;100426.13;5065469;28;20121;-67
2021/10/12 07:57:03;;;;;;;0.00;0.00;;;;;;;23.99;100.00;100422.06;5064072;28;20170;-65
2021/10/12 07:59:48;;;;;;;0.00;0.00;;;;;;;24.19;100.00;100423.47;5045913;28;20072;-67
2021/10/12 08:02:32;;;;;;;0.00;0.00;;;;;;;24.30;100.00;100410.09;5053838;28;20475;-64
2021/10/12 08:05:17;;;;;;;0.00;0.00;;;;;;;24.48;100.00;100425.16;5051892;28;20075;-62
2021/10/12 08:08:03;;;;;;;0.00;0.00;;;;;;;24.59;100.00;100418.03;5046888;28;20145;-60
2021/10/12 08:10:50;;;;;;;0.00;0.00;;;;;;;24.76;100.00;100416.94;5055049;28;20230;-63
2021/10/12 08:13:35;;;;;;;0.00;0.00;;;;;;;24.83;100.00;100413.69;5043272;28;20048;-62
2021/10/12 08:16:32;;;;;;;0.00;0.00;;;;;;;24.72;100.00;100382.84;5051720;28;20047;-60
2021/10/12 08:19:16;;;;;;;0.00;0.00;;;;;;;25.00;100.00;100413.41;5055173;28;20094;-62
2021/10/12 08:22:03;;;;;;;0.00;0.00;;;;;;;25.11;100.00;100410.81;5062365;28;20126;-61
2021/10/12 08:24:48;;;;;;;0.00;0.00;;;;;;;25.23;100.00;100417.22;5063414;28;20054;-63
2021/10/12 08:27:33;;;;;;;0.00;0.00;;;;;;;25.26;100.00;100414.31;5061763;28;20128;-63
2021/10/12 08:30:17;;;;;;;0.00;0.00;;;;;;;25.31;100.00;100394.03;5056067;28;20094;-63
2021/10/12 08:33:02;;;;;;;0.00;0.00;;;;;;;25.42;100.00;100399.59;5049601;28;20131;-63
2021/10/12 08:35:47;;;;;;;0.00;0.00;;;;;;;25.54;100.00;100397.84;5063821;28;20064;-62
2021/10/12 08:38:34;;;;;;;0.00;0.00;;;;;;;25.63;100.00;100394.50;5066719;28;20044;-67
2021/10/12 08:41:24;;;;;;;0.00;0.00;;;;;;;25.67;100.00;100399.56;5054180;28;20542;-64
2021/10/12 08:44:10;;;;;;;0.00;0.00;;;;;;;25.70;100.00;100398.47;5066419;28;20052;-64
2021/10/12 08:46:55;;;;;;;0.00;0.00;;;;;;;25.76;100.00;100390.75;5065761;28;20099;-69
2021/10/12 08:49:40;;;;;;;0.00;0.00;;;;;;;25.83;100.00;100383.91;5053308;28;20098;-65
2021/10/12 08:52:26;;;;;;;0.00;0.00;;;;;;;25.93;100.00;100389.53;5063068;28;20101;-65
2021/10/12 08:55:12;;;;;;;0.00;0.00;;;;;;;25.92;100.00;100385.94;5037371;28;20055;-65
2021/10/12 08:57:57;;;;;;;0.00;0.00;;;;;;;25.99;100.00;100385.53;5047875;28;20056;-63
2021/10/12 09:00:42;;;;;;;0.00;0.00;;;;;;;26.02;100.00;100372.56;5062456;28;20144;-66
2021/10/12 09:06:37;;;;;;;0.00;0.00;;;;;;;26.23;100.00;100378.28;5082784;28;20055;-61
2021/10/12 09:09:34;;;;;;;0.00;0.00;;;;;;;26.30;100.00;100372.25;5066180;28;20054;-65
2021/10/12 09:12:48;;;;;;;0.00;0.00;;;;;;;26.37;100.00;100361.81;5044729;28;20056;-63
2021/10/12 09:15:32;;;;;;;0.00;0.00;;;;;;;26.40;100.00;100361.56;5048602;28;20056;-63
2021/10/12 09:18:17;;;;;;;0.00;0.00;;;;;;;26.44;100.00;100366.66;5054251;28;20576;-64
2021/10/12 09:21:17;;;;;;;0.00;0.00;;;;;;;26.47;100.00;100354.69;5046795;28;20051;-62
2021/10/12 09:24:11;;;;;;;0.00;0.00;;;;;;;26.46;100.00;100350.22;5035094;28;20051;-62
2021/10/12 09:27:05;;;;;;;0.17;0.00;;;;;;;26.54;100.00;100343.19;5061047;28;20055;-64
2021/10/12 09:30:06;;;;;;;0.00;0.00;;;;;;;26.58;100.00;100350.19;5063482;28;20514;-63
2021/10/12 09:33:08;;;;;;;0.00;0.00;;;;;;;26.63;100.00;100339.84;5070683;28;20071;-65
2021/10/12 09:35:52;;;;;;;0.00;0.00;;;;;;;26.66;100.00;100344.16;5062968;28;20102;-62
2021/10/12 09:38:46;;;;;;;0.00;0.00;;;;;;;26.60;100.00;100331.91;5051687;28;20052;-63
2021/10/12 09:41:31;;;;;;;0.00;0.00;;;;;;;26.71;100.00;100339.22;5072253;28;20102;-62
2021/10/12 09:44:18;;;;;;;0.00;0.00;;;;;;;26.71;100.00;100333.78;5055822;28;20520;-64
2021/10/12 09:47:15;;;;;;;0.00;0.00;;;;;;;26.65;100.00;100320.69;5058933;28;20051;-65
2021/10/12 09:50:13;;;;;;;0.00;0.00;;;;;;;26.64;100.00;100327.97;5066304;28;20090;-65
2021/10/12 09:52:59;;;;;;;0.00;0.00;;;;;;;26.64;100.00;100324.34;5055072;28;20051;-62
2021/10/12 09:55:44;;;;;;;0.00;0.00;;;;;;;26.65;100.00;100310.63;5054677;28;20136;-62
2021/10/12 09:58:31;;;;;;;0.00;0.00;;;;;;;26.67;100.00;100307.81;5052562;28;20736;-64
2021/10/12 10:01:16;;;;;;;0.00;0.00;;;;;;;26.76;100.00;100310.69;5057141;28;20531;-64
2021/10/12 10:04:01;;;;;;;0.00;0.00;;;;;;;26.81;100.00;100310.34;5050286;28;20051;-61
2021/10/12 10:06:48;;;;;;;0.00;0.00;;;;;;;26.86;100.00;100297.22;5059728;28;20079;-65
2021/10/12 10:09:40;;;;;;;0.00;0.00;;;;;;;26.87;100.00;100299.81;5053796;28;20535;-63
2021/10/12 10:12:28;;;;;;;0.00;0.00;;;;;;;26.87;100.00;100291.66;5061165;28;20098;-63
2021/10/12 10:15:12;;;;;;;0.00;0.00;;;;;;;26.88;100.00;100292.50;5056260;28;20519;-63
2021/10/12 10:17:59;;;;;;;0.00;0.00;;;;;;;26.92;100.00;100289.44;5055427;28;20059;-63
2021/10/12 10:20:50;;;;;;;0.00;0.00;;;;;;;26.90;100.00;100283.22;5065602;28;20059;-66
2021/10/12 10:24:18;;;;;;;0.00;0.00;;;;;;;27.03;100.00;100285.88;5038611;28;20082;-62
2021/10/12 10:27:05;;;;;;;0.00;0.00;;;;;;;27.06;100.00;100283.78;5047455;28;20469;-62
2021/10/12 10:29:50;;;;;;;0.00;0.00;;;;;;;27.10;100.00;100289.84;5047090;28;20153;-64
2021/10/12 10:32:47;;;;;;;0.00;0.00;;;;;;;27.01;95.72;100287.84;5063721;28;20106;-65
2021/10/12 10:35:47;;;;;;;0.00;0.00;;;;;;;26.99;93.63;100287.97;5067729;28;20090;-67
2021/10/12 10:38:45;;;;;;;0.00;0.00;;;;;;;27.05;90.62;100292.06;5047745;28;20435;-67
2021/10/12 10:41:35;;;;;;;0.28;0.00;;;;;;;27.04;87.39;100276.69;5048679;28;20071;-68
2021/10/12 10:44:20;;;;;;;0.00;0.00;;;;;;;26.98;86.76;100275.34;5056892;28;20039;-67
2021/10/12 10:47:04;;;;;;;0.13;0.00;;;;;;;27.05;84.94;100275.72;5034677;28;20512;-64
2021/10/12 10:50:12;;;;;;;0.00;0.00;;;;;;;27.01;81.08;100280.53;5063034;28;20536;-70
2021/10/12 10:53:03;;;;;;;0.00;0.00;;;;;;;27.06;78.29;100275.63;5064986;28;20573;-62
2021/10/12 10:55:59;;;;;;;0.00;0.00;;;;;;;27.08;75.47;100272.75;5053864;28;20051;-66
2021/10/12 10:58:44;;;;;;;0.00;0.00;;;;;;;26.76;66.22;100266.25;5057134;28;20058;-62
2021/10/12 11:01:37;;;;;;;0.00;0.00;;;;;;;26.63;61.46;100260.94;5066354;28;20047;-61
2021/10/12 11:04:42;;;;;;;0.00;0.00;;;;;;;26.81;65.26;100267.63;5051303;28;20051;-63
2021/10/12 11:07:29;;;;;;;0.00;0.00;;;;;;;27.00;67.89;100264.31;5066322;28;20096;-64
2021/10/12 11:10:30;;;;;;;0.00;0.00;;;;;;;27.19;68.15;100272.75;5039309;28;20052;-66
2021/10/12 11:13:44;;;;;;;0.00;0.00;;;;;;;27.28;71.10;100266.59;5054236;28;20774;-64
2021/10/12 11:16:35;;;;;;;0.00;0.00;;;;;;;27.28;75.01;100267.47;5059368;28;20424;-64
2021/10/12 11:19:20;;;;;;;0.00;0.00;;;;;;;27.29;76.81;100254.75;5049790;28;20091;-65
2021/10/12 11:22:06;;;;;;;0.00;0.00;;;;;;;27.24;78.48;100255.09;5048080;28;20138;-65
2021/10/12 11:24:52;;;;;;;0.00;0.00;;;;;;;27.17;79.67;100253.81;5064586;28;20048;-65
2021/10/12 11:27:41;;;;;;;0.00;0.00;;;;;;;27.11;80.50;100248.00;5061583;28;20550;-65
2021/10/12 11:30:35;;;;;;;0.00;0.00;;;;;;;27.03;81.80;100250.47;5038207;28;20106;-65
2021/10/12 11:33:43;;;;;;;0.00;0.00;;;;;;;27.03;82.52;100253.19;5052772;28;20079;-63
2021/10/12 11:36:32;;;;;;;0.00;0.00;;;;;;;27.07;82.70;100250.13;5032096;28;20043;-65
2021/10/12 11:39:20;;;;;;;0.00;0.00;;;;;;;27.20;83.21;100247.25;5057377;28;20046;-66
2021/10/12 11:42:06;;;;;;;0.00;0.00;;;;;;;27.24;84.31;100238.75;5062635;28;20055;-63
2021/10/12 11:44:52;;;;;;;0.00;0.00;;;;;;;27.26;85.01;100241.34;5058153;28;20047;-66
2021/10/12 11:47:38;;;;;;;0.00;0.00;;;;;;;27.29;86.62;100236.50;5056681;28;20083;-64
2021/10/12 11:50:24;;;;;;;0.00;0.00;;;;;;;27.26;88.34;100246.81;5049410;28;20175;-64
2021/10/12 11:53:29;;;;;;;0.00;0.00;;;;;;;27.23;89.40;100241.59;5063988;28;20056;-65
2021/10/12 11:56:17;;;;;;;0.00;0.00;;;;;;;27.22;91.49;100248.03;5060277;28;20135;-65
2021/10/12 11:59:05;;;;;;;0.00;0.00;;;;;;;27.22;92.50;100248.91;5054526;28;20048;-64
2021/10/12 12:01:52;;;;;;;0.00;0.00;;;;;;;27.21;93.57;100239.00;5058521;28;20042;-64
2021/10/12 12:04:37;;;;;;;0.00;0.00;;;;;;;27.28;92.10;100236.63;5056679;28;20047;-64
2021/10/12 12:07:23;;;;;;;0.00;0.00;;;;;;;27.29;91.34;100241.13;5049818;28;20095;-64
2021/10/12 12:10:11;;;;;;;0.00;0.00;;;;;;;27.25;91.57;100228.75;5055526;28;20090;-65
2021/10/12 12:12:57;;;;;;;0.00;0.00;;;;;;;27.28;91.72;100233.91;5060556;28;20051;-65
2021/10/12 12:15:43;;;;;;;0.00;0.00;;;;;;;27.23;91.91;100226.13;5069613;28;20056;-63
2021/10/12 12:18:38;;;;;;;0.00;0.00;;;;;;;27.15;93.14;100227.69;5048828;28;20996;-61
2021/10/12 12:21:32;;;;;;;0.00;0.00;;;;;;;27.13;93.90;100224.25;5053304;28;20207;-64
2021/10/12 12:24:24;;;;;;;0.00;0.00;;;;;;;27.09;94.10;100218.16;5069605;28;20047;-63
2021/10/12 12:27:08;;;;;;;0.00;0.00;;;;;;;27.04;96.16;100222.25;5059491;28;20056;-64
2021/10/12 12:30:12;;;;;;;0.00;0.00;;;;;;;27.02;96.70;100221.50;5059706;28;20052;-64
2021/10/12 12:32:58;;;;;;;0.00;0.00;;;;;;;26.89;96.45;100209.88;5062371;28;20059;-62
2021/10/12 12:35:48;;;;;;;0.00;0.00;;;;;;;26.85;96.97;100209.25;5062878;28;20462;-63
2021/10/12 12:38:32;;;;;;;0.00;0.00;;;;;;;26.75;97.28;100212.81;5067390;28;20097;-62
2021/10/12 12:41:21;;;;;;;0.00;0.00;;;;;;;26.62;97.43;100215.63;5067275;28;20399;-65
2021/10/12 12:44:06;;;;;;;0.00;0.00;;;;;;;26.52;100.00;100216.44;5053121;28;20099;-63
2021/10/12 12:46:59;;;;;;;0.00;0.00;;;;;;;26.42;100.00;100210.00;5064177;28;20109;-63
2021/10/12 12:49:44;;;;;;;0.00;0.00;;;;;;;26.33;100.00;100208.00;5057441;28;20043;-71
2021/10/12 12:52:32;;;;;;;0.00;0.00;;;;;;;26.27;100.00;100203.91;5057052;28;20443;-68
2021/10/12 12:55:43;;;;;;;0.00;0.00;;;;;;;26.22;98.18;100205.25;5058234;28;20995;-68
2021/10/12 12:58:39;;;;;;;0.00;0.00;;;;;;;26.05;93.70;100200.22;5058011;28;20184;-69